Time;durP1;ratioP1;P1;durP2;ratioP2;P2;SDS_P1;SDS_P2;PMS_P1;PMS_P2;Temp;Humidity;BMP_temperature;BMP_pressure;BME280_temperature;BME280_humidity;BME280_pressure;Samples;Min_cycle;Max_cycle;Signal;HPM_P1;HPM_P2
2023/03/21 00:00:41;;;;;;;30.92;14.27;;;9.20;99.90;;;;;;5068643;28;20350;-85
2023/03/21 00:03:07;;;;;;;29.50;14.93;;;9.40;99.90;;;;;;5088329;28;20052;-84
2023/03/21 00:05:33;;;;;;;32.97;15.00;;;9.20;99.90;;;;;;5069722;28;20051;-85
2023/03/21 00:07:59;;;;;;;32.28;14.32;;;9.20;99.90;;;;;;5069060;28;20399;-85
2023/03/21 00:10:25;;;;;;;30.40;14.70;;;9.20;99.90;;;;;;5087365;28;20056;-85
2023/03/21 00:12:57;;;;;;;28.27;14.68;;;9.20;99.90;;;;;;5070229;28;20395;-85
2023/03/21 00:15:26;;;;;;;30.65;14.90;;;9.20;99.90;;;;;;5052844;28;20478;-84
2023/03/21 00:17:57;;;;;;;29.25;14.00;;;9.30;99.90;;;;;;5087318;28;20391;-84
2023/03/21 00:20:23;;;;;;;27.17;13.90;;;9.20;99.90;;;;;;5053613;28;20128;-84
2023/03/21 00:22:48;;;;;;;28.13;13.93;;;9.20;99.90;;;;;;5067787;28;20188;-84
2023/03/21 00:25:14;;;;;;;29.20;13.88;;;9.20;99.90;;;;;;5057051;28;20078;-84
2023/03/21 00:27:40;;;;;;;28.10;13.68;;;9.20;99.90;;;;;;5086668;28;20043;-84
2023/03/21 00:30:06;;;;;;;25.42;13.45;;;9.20;99.90;;;;;;5052492;28;20044;-83
2023/03/21 00:32:32;;;;;;;26.38;13.55;;;9.20;99.90;;;;;;5069843;28;20374;-84
2023/03/21 00:34:57;;;;;;;28.08;14.35;;;9.20;99.90;;;;;;5086606;28;20032;-84
2023/03/21 00:37:23;;;;;;;24.52;12.73;;;9.30;99.90;;;;;;5068329;28;20079;-84
2023/03/21 00:39:48;;;;;;;22.90;12.25;;;9.30;99.90;;;;;;5069927;28;20048;-84
2023/03/21 00:42:15;;;;;;;24.33;12.55;;;9.20;99.90;;;;;;5086529;28;20096;-84
2023/03/21 00:44:41;;;;;;;24.35;13.50;;;9.30;99.90;;;;;;5068540;28;20040;-84
2023/03/21 00:47:09;;;;;;;27.15;13.15;;;9.30;99.90;;;;;;5053110;28;20044;-84
2023/03/21 00:49:36;;;;;;;23.90;13.00;;;9.30;99.90;;;;;;5069244;28;20047;-84
2023/03/21 00:52:05;;;;;;;25.33;13.27;;;9.30;99.90;;;;;;5052597;28;20051;-84
2023/03/21 00:54:32;;;;;;;24.17;12.85;;;9.30;99.90;;;;;;5086973;28;20108;-85
2023/03/21 00:56:57;;;;;;;25.45;13.18;;;9.30;99.90;;;;;;5069981;28;20608;-84
2023/03/21 00:59:23;;;;;;;22.48;12.50;;;9.30;99.90;;;;;;5069794;28;20155;-84
2023/03/21 01:01:48;;;;;;;26.85;13.75;;;9.30;99.90;;;;;;5067834;28;20043;-84
2023/03/21 01:04:15;;;;;;;23.10;12.88;;;9.30;99.90;;;;;;5070076;28;20374;-84
2023/03/21 01:06:42;;;;;;;23.52;12.77;;;9.30;99.90;;;;;;5069981;28;20126;-84
2023/03/21 01:09:14;;;;;;;26.27;13.60;;;9.30;99.90;;;;;;5069462;28;20036;-84
2023/03/21 01:11:41;;;;;;;;;;;9.30;99.90;;;;;;5086561;28;20123;-84
2023/03/21 01:14:06;;;;;;;23.35;12.32;;;9.30;99.90;;;;;;5069034;28;19927;-84
2023/03/21 01:16:32;;;;;;;25.05;12.52;;;9.30;99.90;;;;;;5086941;28;20047;-84
2023/03/21 01:18:58;;;;;;;22.52;12.63;;;9.30;99.90;;;;;;5068660;28;20093;-84
2023/03/21 01:21:24;;;;;;;24.58;12.57;;;9.30;99.90;;;;;;5067862;28;20047;-84
2023/03/21 01:23:50;;;;;;;25.60;13.40;;;9.30;99.90;;;;;;5086444;28;20127;-83
2023/03/21 01:26:16;;;;;;;23.45;12.50;;;9.30;99.90;;;;;;5068453;28;20475;-83
2023/03/21 01:28:43;;;;;;;26.95;13.32;;;9.30;99.90;;;;;;5068217;28;20299;-83
2023/03/21 01:31:11;;;;;;;24.45;13.95;;;9.30;99.90;;;;;;5051644;28;20046;-84
2023/03/21 01:33:37;;;;;;;27.90;13.50;;;9.30;99.90;;;;;;5068706;28;20040;-84
2023/03/21 01:36:03;;;;;;;27.33;14.13;;;9.30;99.90;;;;;;5068599;28;20705;-84
2023/03/21 01:38:29;;;;;;;25.35;14.27;;;9.30;99.90;;;;;;5050827;28;20060;-85
2023/03/21 01:40:55;;;;;;;30.83;14.57;;;9.30;99.90;;;;;;5085998;28;20062;-84
2023/03/21 01:43:22;;;;;;;27.27;13.60;;;9.80;99.90;;;;;;5064904;28;20088;-84
2023/03/21 01:46:09;;;;;;;29.00;14.23;;;9.30;99.90;;;;;;5048241;28;20056;-84
2023/03/21 01:48:40;;;;;;;27.27;13.90;;;9.30;99.90;;;;;;5048356;28;20083;-84
2023/03/21 01:51:07;;;;;;;23.13;13.20;;;9.30;99.90;;;;;;5048710;28;20055;-84
2023/03/21 01:53:35;;;;;;;24.20;13.50;;;9.30;99.90;;;;;;5049678;28;20736;-84
2023/03/21 01:56:07;;;;;;;26.50;13.82;;;9.30;99.90;;;;;;5087008;28;20044;-84
2023/03/21 01:58:34;;;;;;;;;;;9.40;99.90;;;;;;5068576;28;20079;-84
2023/03/21 02:01:01;;;;;;;27.52;13.48;;;9.40;99.90;;;;;;5087389;28;19931;-84
2023/03/21 02:03:28;;;;;;;27.52;14.18;;;9.30;99.90;;;;;;5068898;28;20055;-84
2023/03/21 02:06:14;;;;;;;29.17;15.50;;;9.30;99.90;;;;;;5068355;28;20155;-85
2023/03/21 02:08:39;;;;;;;31.63;15.82;;;9.30;99.90;;;;;;5089391;28;20040;-84
2023/03/21 02:11:06;;;;;;;30.38;15.52;;;9.30;99.90;;;;;;5081320;28;20113;-84
2023/03/21 02:13:32;;;;;;;32.45;16.40;;;9.30;99.90;;;;;;5051564;28;20490;-84
2023/03/21 02:16:31;;;;;;;29.95;15.93;;;9.30;99.90;;;;;;5069643;28;20070;-84
2023/03/21 02:19:09;;;;;;;33.20;16.30;;;9.30;99.90;;;;;;5070256;28;20101;-85
2023/03/21 02:21:54;;;;;;;34.58;15.07;;;9.30;99.90;;;;;;5069318;28;20091;-84
2023/03/21 02:24:57;;;;;;;26.67;14.07;;;9.30;99.90;;;;;;5069907;28;20048;-85
2023/03/21 02:27:24;;;;;;;26.35;14.50;;;9.40;99.90;;;;;;5073834;28;20071;-85
2023/03/21 02:30:09;;;;;;;28.33;14.48;;;9.30;99.90;;;;;;5089609;28;20048;-85
2023/03/21 02:32:40;;;;;;;26.80;14.63;;;9.30;99.90;;;;;;5070813;28;20043;-85
2023/03/21 02:35:34;;;;;;;28.00;14.15;;;9.30;99.90;;;;;;5088935;28;20378;-85
2023/03/21 02:38:11;;;;;;;26.20;13.70;;;9.30;99.90;;;;;;5051220;28;20051;-85
2023/03/21 02:40:57;;;;;;;23.70;13.05;;;9.30;99.90;;;;;;5078345;28;20044;-84
2023/03/21 02:43:46;;;;;;;27.48;13.57;;;9.30;99.90;;;;;;5089296;28;20052;-84
2023/03/21 02:46:29;;;;;;;25.08;12.70;;;9.30;99.90;;;;;;5071656;28;20108;-84
2023/03/21 02:49:20;;;;;;;21.13;13.32;;;9.30;99.90;;;;;;5071385;28;20085;-85
2023/03/21 02:51:48;;;;;;;22.00;11.00;;;9.30;99.90;;;;;;5069957;28;20052;-84
2023/03/21 02:54:17;;;;;;;21.75;12.35;;;9.30;99.90;;;;;;5071452;28;20105;-85
2023/03/21 02:56:45;;;;;;;22.30;12.27;;;9.30;99.90;;;;;;5078108;28;20489;-85
2023/03/21 02:59:13;;;;;;;23.13;12.18;;;9.30;99.90;;;;;;5108914;28;20497;-85
2023/03/21 03:01:39;;;;;;;19.67;11.32;;;9.30;99.90;;;;;;5073098;28;20459;-85
2023/03/21 03:04:17;;;;;;;20.13;11.75;;;9.40;99.90;;;;;;5070793;28;20367;-85
2023/03/21 03:06:55;;;;;;;23.75;12.13;;;9.40;99.90;;;;;;5070636;28;20075;-85
2023/03/21 03:09:32;;;;;;;20.73;11.18;;;9.30;99.90;;;;;;5070764;28;20047;-84
2023/03/21 03:12:37;;;;;;;21.23;11.10;;;9.30;99.90;;;;;;5070581;28;20088;-84
2023/03/21 03:15:32;;;;;;;19.98;10.30;;;9.30;99.90;;;;;;5040812;28;20098;-85
2023/03/21 03:18:07;;;;;;;21.80;10.38;;;9.30;99.90;;;;;;5087875;28;20070;-84
2023/03/21 03:20:59;;;;;;;19.15;10.38;;;9.30;99.90;;;;;;5087809;28;20031;-84
2023/03/21 03:23:47;;;;;;;20.57;10.30;;;9.30;99.90;;;;;;5037717;28;20457;-83
2023/03/21 03:26:25;;;;;;;19.48;10.32;;;9.30;99.90;;;;;;5051320;28;20086;-84
2023/03/21 03:28:55;;;;;;;20.13;10.20;;;9.30;99.90;;;;;;5050982;28;20127;-84
2023/03/21 03:31:26;;;;;;;18.48;10.18;;;9.30;99.90;;;;;;5063436;28;20093;-84
2023/03/21 03:33:55;;;;;;;16.83;9.10;;;9.30;99.90;;;;;;5069171;28;20044;-84
2023/03/21 03:36:27;;;;;;;17.05;9.82;;;9.30;99.90;;;;;;5068683;28;20055;-84
2023/03/21 03:38:53;;;;;;;17.00;9.82;;;9.30;99.90;;;;;;5069462;28;20100;-84
2023/03/21 03:41:25;;;;;;;18.25;9.80;;;9.30;99.90;;;;;;5069932;28;20067;-84
2023/03/21 03:43:55;;;;;;;16.77;9.95;;;9.30;99.90;;;;;;5068916;28;20048;-84
2023/03/21 03:46:36;;;;;;;16.60;9.63;;;9.30;99.90;;;;;;5052672;28;20047;-85
2023/03/21 03:49:23;;;;;;;17.35;9.57;;;9.30;99.90;;;;;;5069941;28;20052;-86
2023/03/21 03:51:58;;;;;;;17.35;10.73;;;9.30;99.90;;;;;;5049784;28;20075;-85
2023/03/21 03:54:51;;;;;;;15.73;9.80;;;9.30;99.90;;;;;;5064696;28;20036;-85
2023/03/21 03:57:17;;;;;;;16.15;9.90;;;9.30;99.90;;;;;;5084471;28;20052;-85
2023/03/21 03:59:45;;;;;;;16.08;10.00;;;9.30;99.90;;;;;;5069998;28;20514;-85
2023/03/21 04:02:11;;;;;;;15.32;9.82;;;9.20;99.90;;;;;;5087554;28;20097;-85
2023/03/21 04:04:37;;;;;;;16.88;10.30;;;9.30;99.90;;;;;;5068964;28;20040;-84
2023/03/21 04:07:05;;;;;;;16.02;10.73;;;9.30;99.90;;;;;;5086905;28;20044;-84
2023/03/21 04:09:31;;;;;;;17.38;10.25;;;9.20;99.90;;;;;;5053190;28;20040;-85
2023/03/21 04:11:57;;;;;;;15.82;10.45;;;9.30;99.90;;;;;;5087151;28;20083;-84
2023/03/21 04:14:23;;;;;;;18.15;10.52;;;9.30;99.90;;;;;;5087691;28;20756;-85
2023/03/21 04:16:49;;;;;;;15.63;9.73;;;9.30;99.90;;;;;;5069487;28;20056;-85
2023/03/21 04:19:15;;;;;;;17.95;10.60;;;9.30;99.90;;;;;;5069326;28;20051;-85
2023/03/21 04:21:41;;;;;;;15.98;10.05;;;9.20;99.90;;;;;;5087875;28;20113;-86
2023/03/21 04:24:07;;;;;;;17.25;10.32;;;9.20;99.90;;;;;;5068733;28;20047;-85
2023/03/21 04:26:34;;;;;;;18.58;10.45;;;9.20;99.90;;;;;;5069729;28;20043;-84
2023/03/21 04:29:02;;;;;;;17.20;10.57;;;9.20;99.90;;;;;;5069197;28;20058;-85
2023/03/21 04:31:30;;;;;;;16.00;9.68;;;9.20;99.90;;;;;;5069201;28;20056;-85
2023/03/21 04:34:08;;;;;;;19.10;10.48;;;9.70;99.90;;;;;;5068768;28;20036;-85
2023/03/21 04:36:46;;;;;;;16.90;10.55;;;9.20;99.90;;;;;;5087323;28;20529;-85
2023/03/21 04:39:13;;;;;;;20.13;10.85;;;9.20;99.90;;;;;;5069189;28;20390;-85
2023/03/21 04:41:40;;;;;;;18.45;11.68;;;8.80;99.90;;;;;;5069671;28;20154;-85
2023/03/21 04:44:10;;;;;;;19.98;11.80;;;9.20;99.90;;;;;;5068746;28;20043;-85
2023/03/21 04:46:36;;;;;;;22.38;12.40;;;9.20;99.90;;;;;;5068972;28;20048;-84
2023/03/21 04:49:03;;;;;;;20.02;12.15;;;9.70;99.90;;;;;;5067825;28;20069;-85
2023/03/21 04:51:29;;;;;;;19.05;12.23;;;9.20;99.90;;;;;;5068418;28;20113;-84
2023/03/21 04:53:56;;;;;;;21.25;12.57;;;9.20;99.90;;;;;;5067970;28;20123;-85
2023/03/21 04:56:30;;;;;;;19.40;12.43;;;9.20;99.90;;;;;;5069035;28;20502;-85
2023/03/21 04:59:02;;;;;;;23.60;12.73;;;9.20;99.90;;;;;;5069653;28;20142;-85
2023/03/21 05:01:30;;;;;;;22.20;12.70;;;9.20;99.90;;;;;;5069218;28;20455;-86
2023/03/21 05:04:00;;;;;;;18.45;11.77;;;9.30;99.90;;;;;;5068773;28;20047;-85
2023/03/21 05:06:26;;;;;;;21.10;12.57;;;9.20;99.90;;;;;;5086521;28;20047;-85
2023/03/21 05:08:55;;;;;;;20.20;12.75;;;9.30;99.90;;;;;;5069130;28;20047;-86
2023/03/21 05:11:21;;;;;;;21.00;13.57;;;9.20;99.90;;;;;;5069567;28;20127;-85
2023/03/21 05:13:50;;;;;;;22.13;13.10;;;9.30;99.90;;;;;;5068439;28;20735;-85
2023/03/21 05:16:16;;;;;;;23.23;13.30;;;9.30;99.90;;;;;;5069136;28;20124;-86
2023/03/21 05:18:41;;;;;;;21.23;13.45;;;9.30;99.90;;;;;;5067631;28;20565;-85
2023/03/21 05:21:09;;;;;;;21.55;14.10;;;9.20;99.90;;;;;;5087652;28;20048;-85
2023/03/21 05:23:37;;;;;;;25.38;15.15;;;9.30;99.90;;;;;;5087167;28;20054;-85
2023/03/21 05:26:11;;;;;;;23.83;14.80;;;9.30;99.90;;;;;;5051992;28;20076;-85
2023/03/21 05:28:38;;;;;;;23.15;14.07;;;9.30;99.90;;;;;;5068800;28;20516;-85
2023/03/21 05:31:05;;;;;;;25.00;14.93;;;9.70;99.90;;;;;;5068757;28;20113;-85
2023/03/21 05:33:31;;;;;;;25.40;14.88;;;9.20;99.90;;;;;;5087445;28;20082;-85
2023/03/21 05:35:57;;;;;;;27.35;15.68;;;9.20;99.90;;;;;;5086407;28;20079;-85
2023/03/21 05:38:24;;;;;;;24.35;15.60;;;9.20;99.90;;;;;;5085306;28;20498;-86
2023/03/21 05:40:50;;;;;;;25.98;16.08;;;9.60;99.90;;;;;;5088098;28;20109;-86
2023/03/21 05:43:16;;;;;;;30.73;16.58;;;9.20;99.90;;;;;;5072101;28;20482;-86
2023/03/21 05:45:42;;;;;;;26.35;16.23;;;9.20;99.90;;;;;;5090618;28;20101;-86
2023/03/21 05:48:07;;;;;;;25.73;15.90;;;9.20;99.90;;;;;;5089330;28;20048;-86
2023/03/21 05:50:33;;;;;;;28.27;17.30;;;9.20;99.90;;;;;;5071559;28;20415;-86
2023/03/21 05:52:59;;;;;;;29.92;16.65;;;9.20;99.90;;;;;;5071640;28;20105;-86
2023/03/21 05:55:25;;;;;;;31.98;17.10;;;9.20;99.90;;;;;;5091024;28;20135;-86
2023/03/21 05:57:50;;;;;;;26.88;16.92;;;9.50;99.90;;;;;;5089780;28;20050;-86
2023/03/21 06:00:16;;;;;;;29.38;16.83;;;9.20;99.90;;;;;;5090148;28;20087;-86
2023/03/21 06:02:43;;;;;;;30.35;17.70;;;9.20;99.90;;;;;;5090855;28;20036;-86
2023/03/21 06:05:09;;;;;;;33.35;19.02;;;9.20;99.90;;;;;;5089047;28;20549;-86
2023/03/21 06:07:35;;;;;;;35.15;19.63;;;9.20;99.90;;;;;;5071228;28;20230;-86
2023/03/21 06:10:02;;;;;;;28.50;18.15;;;9.20;99.90;;;;;;5090854;28;20425;-86
2023/03/21 06:12:28;;;;;;;31.42;17.85;;;9.20;99.90;;;;;;5090624;28;20044;-86
2023/03/21 06:14:54;;;;;;;30.42;17.33;;;9.20;99.90;;;;;;5088817;28;20042;-86
2023/03/21 06:17:20;;;;;;;29.58;18.10;;;9.20;99.90;;;;;;5071518;28;20044;-86
2023/03/21 06:19:45;;;;;;;33.10;17.48;;;9.20;99.90;;;;;;5072109;28;20044;-85
2023/03/21 06:22:11;;;;;;;31.17;18.55;;;9.20;99.90;;;;;;5072499;28;20043;-86
2023/03/21 06:24:36;;;;;;;30.75;17.90;;;9.20;99.90;;;;;;5071855;28;20058;-87
2023/03/21 06:27:02;;;;;;;30.23;18.27;;;9.20;99.90;;;;;;5089036;28;20379;-86
2023/03/21 06:29:28;;;;;;;32.45;18.02;;;9.20;99.90;;;;;;5090253;28;20378;-87
2023/03/21 06:31:53;;;;;;;30.40;17.75;;;9.20;99.90;;;;;;5071914;28;20472;-88
2023/03/21 06:34:19;;;;;;;28.70;17.30;;;9.20;99.90;;;;;;5071692;28;20075;-87
2023/03/21 06:36:45;;;;;;;32.88;18.10;;;9.20;99.90;;;;;;5087365;28;20413;-87
2023/03/21 06:39:12;;;;;;;32.58;17.30;;;9.20;99.90;;;;;;5087741;28;20068;-87
2023/03/21 06:41:38;;;;;;;30.77;16.75;;;9.20;99.90;;;;;;5061949;28;20052;-87
2023/03/21 06:44:03;;;;;;;33.60;18.15;;;9.60;99.90;;;;;;5070906;28;20055;-87
2023/03/21 06:46:30;;;;;;;27.45;16.55;;;9.30;99.90;;;;;;5091232;28;20073;-86
2023/03/21 06:48:56;;;;;;;27.35;16.30;;;9.30;99.90;;;;;;5081510;28;20044;-87
2023/03/21 06:51:21;;;;;;;22.90;14.55;;;9.30;99.90;;;;;;5053121;28;20046;-87
2023/03/21 06:53:47;;;;;;;23.42;13.73;;;9.30;99.90;;;;;;5070529;28;20048;-87
2023/03/21 06:56:13;;;;;;;23.63;13.88;;;9.30;99.90;;;;;;5072000;28;20090;-87
2023/03/21 06:58:39;;;;;;;22.13;13.05;;;9.30;99.90;;;;;;5071817;28;20525;-88
2023/03/21 07:01:06;;;;;;;16.67;11.27;;;9.30;99.90;;;;;;5089199;28;20044;-87
2023/03/21 07:03:33;;;;;;;18.33;11.68;;;9.30;99.90;;;;;;5089269;28;20044;-87
2023/03/21 07:06:02;;;;;;;17.90;11.45;;;9.40;99.90;;;;;;5088680;28;20051;-87
2023/03/21 07:08:28;;;;;;;19.08;12.38;;;9.40;99.90;;;;;;5070754;28;20048;-88
2023/03/21 07:10:56;;;;;;;18.17;11.70;;;9.40;99.90;;;;;;5071395;28;20044;-88
2023/03/21 07:13:22;;;;;;;14.35;10.13;;;9.40;99.90;;;;;;5087282;28;20044;-87
2023/03/21 07:15:48;;;;;;;18.80;9.77;;;9.40;99.90;;;;;;5054400;28;20097;-86
2023/03/21 07:18:13;;;;;;;15.85;10.02;;;9.40;99.90;;;;;;5068676;28;20042;-87
2023/03/21 07:20:39;;;;;;;16.92;9.95;;;9.40;99.90;;;;;;5070951;28;20036;-87
2023/03/21 07:23:21;;;;;;;15.32;10.35;;;9.70;99.90;;;;;;5071764;28;20040;-86
2023/03/21 07:25:49;;;;;;;15.73;9.88;;;9.40;99.90;;;;;;5071057;28;20457;-87
2023/03/21 07:28:18;;;;;;;14.13;10.68;;;9.50;99.90;;;;;;5068890;28;20096;-87
2023/03/21 07:30:44;;;;;;;14.68;10.50;;;9.90;99.90;;;;;;5071503;28;20160;-89
2023/03/21 07:33:11;;;;;;;16.15;10.80;;;9.50;99.90;;;;;;5068867;28;20101;-88
2023/03/21 07:35:37;;;;;;;15.75;10.73;;;9.50;99.90;;;;;;5072770;28;20079;-87
2023/03/21 07:38:04;;;;;;;15.20;10.30;;;9.50;99.90;;;;;;5070871;28;20194;-87
2023/03/21 07:40:30;;;;;;;16.42;11.65;;;9.60;99.90;;;;;;5079034;28;20122;-88
2023/03/21 07:42:55;;;;;;;15.02;10.98;;;9.50;99.90;;;;;;5065795;28;20052;-88
2023/03/21 07:45:24;;;;;;;17.98;13.40;;;9.50;99.90;;;;;;5064635;28;20475;-87
2023/03/21 07:47:50;;;;;;;18.70;12.90;;;9.90;99.90;;;;;;5078168;28;20131;-87
2023/03/21 07:50:16;;;;;;;18.05;13.63;;;9.50;99.90;;;;;;5071316;28;20123;-87
2023/03/21 07:52:42;;;;;;;18.95;12.23;;;9.50;99.90;;;;;;5068699;28;20047;-88
2023/03/21 07:55:08;;;;;;;17.60;12.25;;;9.50;99.90;;;;;;5070127;28;20390;-87
2023/03/21 07:57:34;;;;;;;14.90;11.82;;;9.50;99.90;;;;;;5070818;28;20046;-86
2023/03/21 08:00:00;;;;;;;15.20;11.68;;;9.50;99.90;;;;;;5070579;28;20429;-86
2023/03/21 08:02:25;;;;;;;16.38;11.52;;;9.50;99.90;;;;;;5088038;28;20044;-87
2023/03/21 08:04:51;;;;;;;17.45;11.93;;;9.50;99.90;;;;;;5034613;28;20055;-88
2023/03/21 08:07:17;;;;;;;18.33;11.48;;;9.50;99.90;;;;;;5069409;28;20040;-89
2023/03/21 08:09:43;;;;;;;18.50;12.38;;;9.50;99.90;;;;;;5087445;28;20040;-87
2023/03/21 08:12:10;;;;;;;17.05;11.45;;;9.50;99.90;;;;;;5041277;28;20131;-87
2023/03/21 08:14:35;;;;;;;15.70;11.55;;;9.50;99.90;;;;;;5067009;28;20474;-87
2023/03/21 08:17:05;;;;;;;16.33;12.00;;;9.50;99.90;;;;;;5069745;28;20040;-88
2023/03/21 08:19:31;;;;;;;17.50;12.18;;;9.50;99.90;;;;;;5069805;28;20075;-88
2023/03/21 08:22:00;;;;;;;18.70;12.23;;;9.60;99.90;;;;;;5051791;28;20052;-88
2023/03/21 08:24:27;;;;;;;20.35;12.88;;;9.60;99.90;;;;;;5069468;28;20695;-89
2023/03/21 08:26:53;;;;;;;18.92;12.25;;;9.80;99.90;;;;;;5067738;28;20051;-88
2023/03/21 08:29:20;;;;;;;18.23;12.35;;;9.70;99.90;;;;;;5087473;28;20048;-86
2023/03/21 08:31:46;;;;;;;16.05;11.68;;;9.70;99.90;;;;;;5066342;28;20139;-86
2023/03/21 08:34:16;;;;;;;17.55;12.35;;;9.70;99.90;;;;;;5067550;28;20040;-87
2023/03/21 08:36:42;;;;;;;17.55;12.23;;;9.70;99.90;;;;;;5086826;28;20398;-87
2023/03/21 08:39:08;;;;;;;16.25;11.90;;;9.80;99.90;;;;;;5070394;28;20048;-89
2023/03/21 08:41:36;;;;;;;18.38;11.48;;;9.80;99.90;;;;;;5070967;28;20054;-89
2023/03/21 08:44:03;;;;;;;16.02;11.00;;;9.80;99.90;;;;;;5088531;28;20197;-88
2023/03/21 08:46:30;;;;;;;17.98;11.50;;;9.80;99.90;;;;;;5090207;28;20784;-89
2023/03/21 08:48:55;;;;;;;16.15;11.80;;;9.80;99.90;;;;;;5090294;28;20091;-87
2023/03/21 08:51:21;;;;;;;14.77;11.55;;;9.80;99.90;;;;;;5041379;28;20095;-86
2023/03/21 08:53:50;;;;;;;18.27;11.50;;;9.80;99.90;;;;;;5071864;28;20466;-87
2023/03/21 08:56:16;;;;;;;18.15;11.27;;;9.80;99.90;;;;;;5070755;28;20079;-87
2023/03/21 08:58:43;;;;;;;18.25;12.38;;;9.90;99.90;;;;;;5052250;28;20044;-86
2023/03/21 09:01:14;;;;;;;21.05;13.30;;;9.90;99.90;;;;;;5064337;28;20090;-87
2023/03/21 09:03:41;;;;;;;21.00;12.63;;;9.90;99.90;;;;;;5063328;28;20067;-87
2023/03/21 09:06:09;;;;;;;19.48;12.75;;;9.90;99.90;;;;;;5067835;28;20048;-86
2023/03/21 09:08:40;;;;;;;22.83;13.57;;;9.90;99.90;;;;;;5064283;28;20048;-87
2023/03/21 09:11:08;;;;;;;19.38;13.02;;;9.90;99.90;;;;;;5064184;28;20070;-89
2023/03/21 09:13:34;;;;;;;22.17;13.85;;;9.90;99.90;;;;;;5069670;28;20142;-88
2023/03/21 09:16:03;;;;;;;21.35;13.95;;;9.90;99.90;;;;;;5065233;28;20110;-88
2023/03/21 09:18:46;;;;;;;21.65;13.68;;;9.90;99.90;;;;;;5057094;28;20044;-89
2023/03/21 09:21:13;;;;;;;24.40;13.80;;;9.90;99.90;;;;;;5072369;28;20076;-90
2023/03/21 09:23:43;;;;;;;23.08;14.80;;;9.90;99.90;;;;;;5055167;28;20061;-88
2023/03/21 09:26:10;;;;;;;24.40;14.18;;;9.90;99.90;;;;;;5058481;28;20072;-86
2023/03/21 09:28:37;;;;;;;22.20;14.18;;;10.70;99.90;;;;;;5053747;28;20052;-88
2023/03/21 09:31:04;;;;;;;20.20;12.80;;;10.00;99.90;;;;;;5052537;28;20055;-87
2023/03/21 09:33:30;;;;;;;21.38;13.65;;;10.00;99.90;;;;;;5056202;28;20157;-88
2023/03/21 09:35:57;;;;;;;21.67;14.52;;;10.00;99.90;;;;;;5091465;28;20063;-88
2023/03/21 09:38:29;;;;;;;22.30;14.27;;;10.00;99.90;;;;;;5091014;28;20047;-87
2023/03/21 09:41:11;;;;;;;23.65;16.20;;;10.00;99.90;;;;;;5089669;28;20139;-88
2023/03/21 09:44:04;;;;;;;20.20;13.70;;;10.10;99.90;;;;;;5091568;28;20378;-85
2023/03/21 09:46:49;;;;;;;23.27;14.35;;;10.10;99.90;;;;;;5089384;28;20056;-86
2023/03/21 09:49:29;;;;;;;25.25;15.23;;;10.10;99.90;;;;;;5088495;28;20101;-86
2023/03/21 09:51:58;;;;;;;24.88;15.20;;;10.10;99.90;;;;;;5065890;28;20052;-86
2023/03/21 09:54:41;;;;;;;23.90;13.88;;;10.10;99.90;;;;;;5089529;28;20082;-86
2023/03/21 09:57:14;;;;;;;28.20;16.70;;;10.10;99.90;;;;;;5072089;28;20047;-86
2023/03/21 09:59:41;;;;;;;22.27;14.63;;;10.10;99.90;;;;;;5072928;28;20082;-87
2023/03/21 10:02:39;;;;;;;23.80;14.25;;;10.10;99.90;;;;;;5089023;28;20532;-86
2023/03/21 10:05:18;;;;;;;23.60;16.63;;;10.10;99.90;;;;;;5071637;28;20129;-86
2023/03/21 10:08:03;;;;;;;19.60;13.30;;;10.20;99.90;;;;;;5071307;28;20685;-86
2023/03/21 10:10:36;;;;;;;22.23;14.23;;;10.20;99.90;;;;;;5055937;28;20153;-87
2023/03/21 10:13:05;;;;;;;20.85;13.25;;;10.20;99.90;;;;;;5070627;28;20522;-87
2023/03/21 10:15:31;;;;;;;20.10;12.00;;;10.20;99.90;;;;;;5055823;28;20047;-86
2023/03/21 10:17:59;;;;;;;19.40;13.13;;;10.20;99.90;;;;;;5072506;28;20398;-86
2023/03/21 10:20:30;;;;;;;25.45;13.32;;;10.20;99.90;;;;;;5072569;28;20055;-87
2023/03/21 10:22:58;;;;;;;18.33;12.25;;;10.30;99.90;;;;;;5088856;28;20074;-87
2023/03/21 10:25:41;;;;;;;17.65;12.15;;;10.30;99.90;;;;;;5054532;28;20501;-87
2023/03/21 10:28:07;;;;;;;;;;;10.30;99.90;;;;;;5088821;28;20143;-87
2023/03/21 10:30:45;;;;;;;21.35;12.40;;;10.40;99.90;;;;;;5070827;28;20319;-86
2023/03/21 10:33:15;;;;;;;17.98;12.25;;;10.40;99.90;;;;;;5089556;28;20036;-86
2023/03/21 10:35:46;;;;;;;15.30;11.15;;;10.60;99.90;;;;;;5070978;28;20105;-88
2023/03/21 10:38:18;;;;;;;17.25;11.23;;;10.50;99.90;;;;;;5071813;28;20040;-87
2023/03/21 10:40:44;;;;;;;;;;;10.60;99.90;;;;;;5090428;28;20474;-87
2023/03/21 10:43:25;;;;;;;16.98;11.13;;;10.60;99.90;;;;;;5090056;28;19927;-88
2023/03/21 10:45:52;;;;;;;17.85;10.77;;;10.60;99.90;;;;;;5089488;28;20127;-85
2023/03/21 10:48:18;;;;;;;18.83;10.60;;;10.70;99.90;;;;;;5088495;28;20111;-85
2023/03/21 10:50:47;;;;;;;16.13;10.57;;;10.80;99.90;;;;;;5087229;28;20443;-84
2023/03/21 10:53:18;;;;;;;18.95;10.20;;;10.80;99.90;;;;;;5054581;28;20087;-85
2023/03/21 10:55:55;;;;;;;16.15;10.63;;;10.80;99.90;;;;;;5089476;28;20062;-83
2023/03/21 10:58:32;;;;;;;17.58;10.15;;;10.80;99.90;;;;;;5052565;28;20079;-85
2023/03/21 11:01:01;;;;;;;14.93;9.77;;;10.90;99.90;;;;;;5082675;28;20407;-84
2023/03/21 11:03:31;;;;;;;16.13;9.90;;;10.90;99.90;;;;;;5062324;28;20145;-85
2023/03/21 11:06:35;;;;;;;17.73;10.80;;;11.00;99.90;;;;;;5089597;28;20048;-83
2023/03/21 11:09:04;;;;;;;18.77;10.70;;;11.10;99.90;;;;;;5070459;28;20170;-83
2023/03/21 11:11:39;;;;;;;15.18;10.05;;;11.20;99.90;;;;;;5054500;28;20056;-83
2023/03/21 11:14:18;;;;;;;14.85;10.38;;;11.30;99.90;;;;;;5082663;28;20044;-85
2023/03/21 11:16:44;;;;;;;15.07;10.82;;;11.30;99.90;;;;;;5043937;28;20502;-85
2023/03/21 11:19:16;;;;;;;20.40;10.57;;;11.40;99.90;;;;;;5068633;28;20047;-85
2023/03/21 11:21:42;;;;;;;;;;;11.50;99.90;;;;;;5066126;28;20132;-85
2023/03/21 11:24:17;;;;;;;15.82;10.60;;;11.60;99.90;;;;;;5050946;28;20744;-84
2023/03/21 11:26:46;;;;;;;16.80;11.75;;;11.70;99.90;;;;;;5068897;28;20404;-84
2023/03/21 11:29:36;;;;;;;16.17;10.88;;;11.80;99.90;;;;;;5068025;28;20048;-84
2023/03/21 11:32:26;;;;;;;15.93;9.73;;;11.90;99.90;;;;;;5062698;28;20047;-84
2023/03/21 11:35:22;;;;;;;15.73;10.80;;;11.90;99.90;;;;;;5083517;28;20156;-83
2023/03/21 11:37:55;;;;;;;13.73;9.10;;;11.90;99.90;;;;;;5068497;28;20054;-85
2023/03/21 11:40:25;;;;;;;13.32;9.15;;;11.90;99.90;;;;;;5068373;28;20050;-84
2023/03/21 11:43:12;;;;;;;12.95;8.95;;;12.00;99.90;;;;;;5069738;28;20054;-87
2023/03/21 11:45:54;;;;;;;13.93;8.77;;;12.00;99.90;;;;;;5062027;28;20070;-85
2023/03/21 11:48:20;;;;;;;14.63;8.82;;;12.00;99.90;;;;;;5074117;28;20044;-86
2023/03/21 11:50:49;;;;;;;13.15;8.63;;;12.00;99.90;;;;;;5073435;28;20051;-87
2023/03/21 11:53:40;;;;;;;11.38;8.43;;;12.20;99.90;;;;;;5089994;28;20036;-87
2023/03/21 11:56:19;;;;;;;11.18;8.13;;;12.20;99.90;;;;;;5075624;28;20043;-86
2023/03/21 11:59:15;;;;;;;11.30;7.55;;;12.20;99.90;;;;;;5073507;28;20052;-86
2023/03/21 12:01:57;;;;;;;12.40;8.27;;;12.20;99.90;;;;;;5087118;28;20047;-87
2023/03/21 12:04:40;;;;;;;9.45;7.63;;;12.20;99.90;;;;;;5052411;28;20040;-85
2023/03/21 12:07:26;;;;;;;;;;;12.20;99.90;;;;;;5070073;28;20044;-87
2023/03/21 12:10:30;;;;;;;13.18;8.00;;;12.20;99.90;;;;;;5068304;28;20040;-86
2023/03/21 12:13:20;;;;;;;11.00;7.00;;;12.30;99.90;;;;;;5087074;28;20062;-84
2023/03/21 12:16:09;;;;;;;9.90;6.25;;;12.40;99.90;;;;;;5087891;28;20048;-85
2023/03/21 12:19:17;;;;;;;10.90;6.68;;;12.50;99.90;;;;;;5087944;28;20044;-86
2023/03/21 12:21:56;;;;;;;8.88;6.32;;;12.50;99.90;;;;;;5068581;28;20051;-86
2023/03/21 12:24:59;;;;;;;12.23;6.43;;;12.50;99.90;;;;;;5070344;28;20044;-85
2023/03/21 12:27:37;;;;;;;12.70;7.10;;;12.50;99.90;;;;;;5085998;28;20081;-85
2023/03/21 12:30:32;;;;;;;11.90;7.03;;;12.40;99.90;;;;;;5069162;28;20048;-86
2023/03/21 12:33:04;;;;;;;11.15;7.22;;;12.30;99.90;;;;;;5088093;28;20059;-85
2023/03/21 12:35:49;;;;;;;9.18;5.95;;;12.20;99.90;;;;;;5086982;28;20048;-86
2023/03/21 12:38:26;;;;;;;11.25;6.53;;;12.20;99.90;;;;;;5067654;28;20056;-85
2023/03/21 12:41:27;;;;;;;10.15;6.75;;;12.10;99.90;;;;;;5067755;28;20036;-86
2023/03/21 12:44:01;;;;;;;9.05;6.57;;;12.00;99.90;;;;;;5068437;28;20105;-85
2023/03/21 12:46:36;;;;;;;8.95;6.30;;;12.00;99.90;;;;;;5066531;28;20082;-85
2023/03/21 12:49:24;;;;;;;9.00;6.30;;;12.00;99.90;;;;;;5067354;28;20147;-86
2023/03/21 12:51:56;;;;;;;12.35;7.15;;;12.00;99.90;;;;;;5067744;28;20089;-86
2023/03/21 12:54:32;;;;;;;15.48;7.45;;;12.00;99.90;;;;;;5069562;28;20373;-85
2023/03/21 12:57:07;;;;;;;10.35;6.63;;;11.90;99.90;;;;;;5069230;28;20069;-86
2023/03/21 12:59:43;;;;;;;9.85;6.75;;;11.90;99.90;;;;;;5052969;28;20048;-87